createdAt,value
2022-08-25T00:00:00.000Z,74.11
2022-08-25T00:15:00.000Z,74.92
2022-08-25T00:30:00.000Z,77.16
2022-08-25T00:45:00.000Z,77.87
2022-08-25T01:00:00.000Z,78.51
2022-08-25T01:15:00.000Z,78.13
2022-08-25T01:30:00.000Z,79.18
2022-08-25T01:45:00.000Z,79.94
2022-08-25T02:00:00.000Z,80.73
2022-08-25T02:15:00.000Z,80.39
2022-08-25T02:30:00.000Z,79.32
2022-08-25T02:45:00.000Z,80.54
2022-08-25T03:00:00.000Z,81.32
2022-08-25T03:15:00.000Z,81.15
2022-08-25T03:30:00.000Z,80.98
2022-08-25T03:45:00.000Z,81.28
2022-08-25T04:00:00.000Z,81.99
2022-08-25T04:15:00.000Z,81.95
2022-08-25T04:30:00.000Z,82.13
2022-08-25T04:45:00.000Z,81.65
2022-08-25T05:00:00.000Z,81.05
2022-08-25T05:15:00.000Z,80.11
2022-08-25T05:30:00.000Z,78.64
2022-08-25T05:45:00.000Z,76.23
2022-08-25T06:00:00.000Z,73.08
2022-08-25T06:15:00.000Z,70.21
2022-08-25T06:30:00.000Z,68.89
2022-08-25T06:45:00.000Z,67.27
2022-08-25T07:00:00.000Z,65.6
2022-08-25T07:15:00.000Z,63.62
2022-08-25T07:30:00.000Z,55.15
2022-08-25T07:45:00.000Z,48.08
2022-08-25T08:00:00.000Z,46.36
2022-08-25T08:15:00.000Z,44.63
2022-08-25T08:30:00.000Z,43.36
2022-08-25T08:45:00.000Z,42.22
2022-08-25T09:00:00.000Z,41.19
2022-08-25T09:15:00.000Z,43.03
2022-08-25T09:30:00.000Z,43.33
2022-08-25T09:45:00.000Z,42.48
2022-08-25T10:00:00.000Z,43.73
2022-08-25T10:15:00.000Z,44.7
2022-08-25T10:30:00.000Z,44.33
2022-08-25T10:45:00.000Z,44.73
2022-08-25T11:00:00.000Z,45.48
2022-08-25T11:15:00.000Z,46.82
2022-08-25T11:30:00.000Z,47.37
2022-08-25T11:45:00.000Z,46.82
2022-08-25T12:00:00.000Z,47.16
2022-08-25T12:15:00.000Z,48.68
2022-08-25T12:30:00.000Z,50.41
2022-08-25T12:45:00.000Z,51.32
2022-08-25T13:00:00.000Z,53.37
2022-08-25T13:15:00.000Z,54.12
2022-08-25T13:30:00.000Z,54.02
2022-08-25T13:45:00.000Z,55.43
2022-08-25T14:00:00.000Z,55.73
2022-08-25T14:15:00.000Z,56.81
2022-08-25T14:30:00.000Z,55.94
2022-08-25T14:45:00.000Z,54.98
2022-08-25T15:00:00.000Z,55.94
2022-08-25T15:15:00.000Z,56.66
2022-08-25T15:30:00.000Z,56.68
2022-08-25T15:45:00.000Z,56.75
2022-08-25T16:00:00.000Z,57.96
2022-08-25T16:15:00.000Z,59.5
2022-08-25T16:30:00.000Z,60.68
2022-08-25T16:45:00.000Z,60.89
2022-08-25T17:00:00.000Z,61.7
2022-08-25T17:15:00.000Z,62.32
2022-08-25T17:30:00.000Z,63.75
2022-08-25T17:45:00.000Z,65.61
2022-08-25T18:00:00.000Z,67.28
2022-08-25T18:15:00.000Z,68.06
2022-08-25T18:30:00.000Z,68.75
2022-08-25T18:45:00.000Z,69.23
2022-08-25T19:00:00.000Z,69.89
2022-08-25T19:15:00.000Z,69.98
2022-08-25T19:30:00.000Z,70.55
2022-08-25T19:45:00.000Z,71.56
2022-08-25T20:00:00.000Z,72.16
2022-08-25T20:15:00.000Z,71.93
2022-08-25T20:30:00.000Z,72.79
2022-08-25T20:45:00.000Z,73.21
2022-08-25T21:00:00.000Z,73.52
2022-08-25T21:15:00.000Z,71.51
2022-08-25T21:30:00.000Z,67.94
2022-08-25T21:45:00.000Z,67.47
2022-08-25T22:00:00.000Z,68.02
2022-08-25T22:15:00.000Z,67.94
2022-08-25T22:30:00.000Z,67.53
2022-08-25T22:45:00.000Z,67.98
2022-08-25T23:00:00.000Z,68.41
2022-08-25T23:15:00.000Z,68.56
2022-08-25T23:30:00.000Z,68.81
2022-08-25T23:45:00.000Z,69.03
